sensor_id;sensor_type;location;lat;lon;timestamp;P1;durP1;ratioP1;P2;durP2;ratioP2
19891;SDS011;10108;50.142;8.724;2023-05-16T00:00:48;44.58;;;26.05;;
19891;SDS011;10108;50.142;8.724;2023-05-16T00:03:14;40.97;;;25.30;;
19891;SDS011;10108;50.142;8.724;2023-05-16T00:05:41;40.53;;;24.88;;
19891;SDS011;10108;50.142;8.724;2023-05-16T00:08:07;40.42;;;25.77;;
19891;SDS011;10108;50.142;8.724;2023-05-16T00:10:33;42.88;;;26.60;;
19891;SDS011;10108;50.142;8.724;2023-05-16T00:12:59;40.03;;;26.23;;
19891;SDS011;10108;50.142;8.724;2023-05-16T00:15:26;40.22;;;25.67;;
19891;SDS011;10108;50.142;8.724;2023-05-16T00:17:54;42.13;;;25.35;;
19891;SDS011;10108;50.142;8.724;2023-05-16T00:20:26;42.70;;;25.10;;
19891;SDS011;10108;50.142;8.724;2023-05-16T00:22:53;43.22;;;25.85;;
19891;SDS011;10108;50.142;8.724;2023-05-16T00:25:19;40.28;;;25.02;;
19891;SDS011;10108;50.142;8.724;2023-05-16T00:27:46;42.47;;;26.67;;
19891;SDS011;10108;50.142;8.724;2023-05-16T00:30:12;40.22;;;24.80;;
19891;SDS011;10108;50.142;8.724;2023-05-16T00:32:38;44.85;;;25.13;;
19891;SDS011;10108;50.142;8.724;2023-05-16T00:35:06;39.65;;;23.73;;
19891;SDS011;10108;50.142;8.724;2023-05-16T00:37:35;40.42;;;25.25;;
19891;SDS011;10108;50.142;8.724;2023-05-16T00:40:01;36.33;;;23.27;;
19891;SDS011;10108;50.142;8.724;2023-05-16T00:42:27;44.20;;;25.13;;
19891;SDS011;10108;50.142;8.724;2023-05-16T00:44:53;43.47;;;25.77;;
19891;SDS011;10108;50.142;8.724;2023-05-16T00:47:19;38.67;;;24.13;;
19891;SDS011;10108;50.142;8.724;2023-05-16T00:49:45;38.63;;;25.45;;
19891;SDS011;10108;50.142;8.724;2023-05-16T00:52:11;37.92;;;23.55;;
19891;SDS011;10108;50.142;8.724;2023-05-16T00:54:38;35.65;;;24.52;;
19891;SDS011;10108;50.142;8.724;2023-05-16T00:57:05;36.85;;;24.52;;
19891;SDS011;10108;50.142;8.724;2023-05-16T00:59:31;38.72;;;23.65;;
19891;SDS011;10108;50.142;8.724;2023-05-16T01:01:58;37.40;;;23.25;;
19891;SDS011;10108;50.142;8.724;2023-05-16T01:04:24;37.55;;;23.35;;
19891;SDS011;10108;50.142;8.724;2023-05-16T01:06:53;40.10;;;24.08;;
19891;SDS011;10108;50.142;8.724;2023-05-16T01:09:21;39.20;;;23.27;;
19891;SDS011;10108;50.142;8.724;2023-05-16T01:11:49;43.47;;;23.98;;
19891;SDS011;10108;50.142;8.724;2023-05-16T01:17:26;34.58;;;21.83;;
19891;SDS011;10108;50.142;8.724;2023-05-16T01:25:38;37.08;;;22.52;;
19891;SDS011;10108;50.142;8.724;2023-05-16T01:28:16;33.08;;;22.45;;
19891;SDS011;10108;50.142;8.724;2023-05-16T01:30:43;35.17;;;22.58;;
19891;SDS011;10108;50.142;8.724;2023-05-16T01:33:09;35.35;;;22.95;;
19891;SDS011;10108;50.142;8.724;2023-05-16T01:35:36;35.55;;;22.65;;
19891;SDS011;10108;50.142;8.724;2023-05-16T01:38:15;34.22;;;22.20;;
19891;SDS011;10108;50.142;8.724;2023-05-16T01:40:57;31.52;;;21.33;;
19891;SDS011;10108;50.142;8.724;2023-05-16T01:43:36;32.05;;;21.25;;
19891;SDS011;10108;50.142;8.724;2023-05-16T01:46:14;36.22;;;21.83;;
19891;SDS011;10108;50.142;8.724;2023-05-16T01:48:53;34.95;;;22.15;;
19891;SDS011;10108;50.142;8.724;2023-05-16T01:51:31;35.90;;;21.63;;
19891;SDS011;10108;50.142;8.724;2023-05-16T01:53:58;34.15;;;22.75;;
19891;SDS011;10108;50.142;8.724;2023-05-16T01:56:35;32.70;;;20.48;;
19891;SDS011;10108;50.142;8.724;2023-05-16T01:59:02;32.60;;;21.00;;
19891;SDS011;10108;50.142;8.724;2023-05-16T02:01:31;32.08;;;21.40;;
19891;SDS011;10108;50.142;8.724;2023-05-16T02:03:57;33.95;;;21.55;;
19891;SDS011;10108;50.142;8.724;2023-05-16T02:06:23;30.73;;;20.05;;
19891;SDS011;10108;50.142;8.724;2023-05-16T02:08:50;32.92;;;21.85;;
19891;SDS011;10108;50.142;8.724;2023-05-16T02:11:17;33.10;;;20.95;;
19891;SDS011;10108;50.142;8.724;2023-05-16T02:13:43;34.63;;;21.85;;
19891;SDS011;10108;50.142;8.724;2023-05-16T02:16:10;35.30;;;22.60;;
19891;SDS011;10108;50.142;8.724;2023-05-16T02:18:36;32.28;;;22.08;;
19891;SDS011;10108;50.142;8.724;2023-05-16T02:21:03;34.20;;;22.23;;
19891;SDS011;10108;50.142;8.724;2023-05-16T02:23:30;36.75;;;23.13;;
19891;SDS011;10108;50.142;8.724;2023-05-16T02:25:56;36.20;;;23.58;;
19891;SDS011;10108;50.142;8.724;2023-05-16T02:28:22;35.45;;;23.10;;
19891;SDS011;10108;50.142;8.724;2023-05-16T02:30:56;38.50;;;23.85;;
19891;SDS011;10108;50.142;8.724;2023-05-16T02:33:25;37.35;;;23.10;;
19891;SDS011;10108;50.142;8.724;2023-05-16T02:35:52;35.95;;;23.02;;
19891;SDS011;10108;50.142;8.724;2023-05-16T02:38:19;32.28;;;21.42;;
19891;SDS011;10108;50.142;8.724;2023-05-16T02:40:46;37.55;;;22.30;;
19891;SDS011;10108;50.142;8.724;2023-05-16T02:43:12;37.85;;;22.73;;
19891;SDS011;10108;50.142;8.724;2023-05-16T02:45:38;37.33;;;23.05;;
19891;SDS011;10108;50.142;8.724;2023-05-16T02:48:05;38.10;;;23.08;;
19891;SDS011;10108;50.142;8.724;2023-05-16T02:50:32;36.78;;;23.08;;
19891;SDS011;10108;50.142;8.724;2023-05-16T02:52:59;36.35;;;23.02;;
19891;SDS011;10108;50.142;8.724;2023-05-16T02:55:27;33.38;;;22.75;;
19891;SDS011;10108;50.142;8.724;2023-05-16T02:57:54;40.05;;;23.23;;
19891;SDS011;10108;50.142;8.724;2023-05-16T03:00:20;35.17;;;22.38;;
19891;SDS011;10108;50.142;8.724;2023-05-16T03:02:46;39.10;;;23.23;;
19891;SDS011;10108;50.142;8.724;2023-05-16T03:05:13;35.08;;;22.95;;
19891;SDS011;10108;50.142;8.724;2023-05-16T03:07:39;33.63;;;23.02;;
19891;SDS011;10108;50.142;8.724;2023-05-16T03:10:06;34.33;;;22.67;;
19891;SDS011;10108;50.142;8.724;2023-05-16T03:12:32;34.88;;;23.23;;
19891;SDS011;10108;50.142;8.724;2023-05-16T03:14:58;33.97;;;23.10;;
19891;SDS011;10108;50.142;8.724;2023-05-16T03:17:24;35.97;;;23.13;;
19891;SDS011;10108;50.142;8.724;2023-05-16T03:19:51;33.17;;;22.42;;
19891;SDS011;10108;50.142;8.724;2023-05-16T03:22:17;36.67;;;23.08;;
19891;SDS011;10108;50.142;8.724;2023-05-16T03:24:43;37.42;;;24.17;;
19891;SDS011;10108;50.142;8.724;2023-05-16T03:27:10;36.13;;;23.40;;
19891;SDS011;10108;50.142;8.724;2023-05-16T03:29:36;37.13;;;22.73;;
19891;SDS011;10108;50.142;8.724;2023-05-16T03:32:02;31.35;;;22.50;;
19891;SDS011;10108;50.142;8.724;2023-05-16T03:34:29;33.90;;;23.15;;
19891;SDS011;10108;50.142;8.724;2023-05-16T03:36:55;34.88;;;22.90;;
19891;SDS011;10108;50.142;8.724;2023-05-16T03:39:22;35.90;;;23.08;;
19891;SDS011;10108;50.142;8.724;2023-05-16T03:41:48;35.10;;;23.17;;
19891;SDS011;10108;50.142;8.724;2023-05-16T03:44:14;39.10;;;23.38;;
19891;SDS011;10108;50.142;8.724;2023-05-16T03:46:40;35.63;;;23.42;;
19891;SDS011;10108;50.142;8.724;2023-05-16T03:49:06;36.92;;;23.08;;
19891;SDS011;10108;50.142;8.724;2023-05-16T03:51:32;38.28;;;22.70;;
19891;SDS011;10108;50.142;8.724;2023-05-16T03:53:58;36.60;;;23.55;;
19891;SDS011;10108;50.142;8.724;2023-05-16T03:56:25;41.60;;;24.20;;
19891;SDS011;10108;50.142;8.724;2023-05-16T03:58:51;36.97;;;23.55;;
19891;SDS011;10108;50.142;8.724;2023-05-16T04:01:17;40.13;;;24.48;;
19891;SDS011;10108;50.142;8.724;2023-05-16T04:03:43;39.70;;;24.48;;
19891;SDS011;10108;50.142;8.724;2023-05-16T04:06:10;36.95;;;23.67;;
19891;SDS011;10108;50.142;8.724;2023-05-16T04:08:36;40.65;;;23.58;;
19891;SDS011;10108;50.142;8.724;2023-05-16T04:11:04;36.53;;;22.38;;
19891;SDS011;10108;50.142;8.724;2023-05-16T04:13:30;36.88;;;21.13;;
19891;SDS011;10108;50.142;8.724;2023-05-16T04:15:56;33.92;;;20.50;;
19891;SDS011;10108;50.142;8.724;2023-05-16T04:18:22;35.78;;;20.60;;
19891;SDS011;10108;50.142;8.724;2023-05-16T04:20:48;35.13;;;21.77;;
19891;SDS011;10108;50.142;8.724;2023-05-16T04:23:14;36.10;;;20.98;;
19891;SDS011;10108;50.142;8.724;2023-05-16T04:25:41;34.88;;;20.63;;
19891;SDS011;10108;50.142;8.724;2023-05-16T04:28:07;33.92;;;19.63;;
19891;SDS011;10108;50.142;8.724;2023-05-16T04:30:33;26.83;;;18.35;;
19891;SDS011;10108;50.142;8.724;2023-05-16T04:32:59;31.08;;;18.55;;
19891;SDS011;10108;50.142;8.724;2023-05-16T04:35:26;32.50;;;18.38;;
19891;SDS011;10108;50.142;8.724;2023-05-16T04:37:52;26.30;;;17.40;;
19891;SDS011;10108;50.142;8.724;2023-05-16T04:40:19;29.98;;;16.10;;
19891;SDS011;10108;50.142;8.724;2023-05-16T04:42:45;25.63;;;15.02;;
19891;SDS011;10108;50.142;8.724;2023-05-16T04:45:12;22.73;;;15.52;;
19891;SDS011;10108;50.142;8.724;2023-05-16T04:47:38;25.50;;;15.38;;
19891;SDS011;10108;50.142;8.724;2023-05-16T04:50:05;22.73;;;15.07;;
19891;SDS011;10108;50.142;8.724;2023-05-16T04:52:33;25.63;;;14.45;;
19891;SDS011;10108;50.142;8.724;2023-05-16T04:54:59;23.58;;;13.85;;
19891;SDS011;10108;50.142;8.724;2023-05-16T04:57:26;23.25;;;14.23;;
19891;SDS011;10108;50.142;8.724;2023-05-16T04:59:52;24.88;;;14.32;;
19891;SDS011;10108;50.142;8.724;2023-05-16T05:02:18;21.40;;;13.52;;
19891;SDS011;10108;50.142;8.724;2023-05-16T05:04:44;19.73;;;12.77;;
19891;SDS011;10108;50.142;8.724;2023-05-16T05:07:11;19.02;;;12.07;;
19891;SDS011;10108;50.142;8.724;2023-05-16T05:09:38;21.13;;;13.00;;
19891;SDS011;10108;50.142;8.724;2023-05-16T05:12:04;18.48;;;11.77;;
19891;SDS011;10108;50.142;8.724;2023-05-16T05:14:32;17.48;;;11.88;;
19891;SDS011;10108;50.142;8.724;2023-05-16T05:16:58;17.90;;;12.38;;
19891;SDS011;10108;50.142;8.724;2023-05-16T05:19:24;17.83;;;11.43;;
19891;SDS011;10108;50.142;8.724;2023-05-16T05:21:50;14.80;;;9.88;;
19891;SDS011;10108;50.142;8.724;2023-05-16T05:24:16;15.50;;;9.65;;
19891;SDS011;10108;50.142;8.724;2023-05-16T05:26:42;13.40;;;9.57;;
19891;SDS011;10108;50.142;8.724;2023-05-16T05:29:08;12.57;;;9.30;;
19891;SDS011;10108;50.142;8.724;2023-05-16T05:31:34;12.18;;;8.75;;
19891;SDS011;10108;50.142;8.724;2023-05-16T05:34:01;12.10;;;8.75;;
19891;SDS011;10108;50.142;8.724;2023-05-16T05:36:28;12.27;;;8.70;;
19891;SDS011;10108;50.142;8.724;2023-05-16T05:38:54;11.77;;;8.38;;
19891;SDS011;10108;50.142;8.724;2023-05-16T05:41:20;11.77;;;8.82;;
19891;SDS011;10108;50.142;8.724;2023-05-16T05:43:46;12.77;;;8.57;;
19891;SDS011;10108;50.142;8.724;2023-05-16T05:46:12;11.35;;;8.40;;
19891;SDS011;10108;50.142;8.724;2023-05-16T05:48:39;12.75;;;7.75;;
19891;SDS011;10108;50.142;8.724;2023-05-16T05:51:05;13.18;;;8.35;;
19891;SDS011;10108;50.142;8.724;2023-05-16T05:53:31;14.00;;;7.85;;
19891;SDS011;10108;50.142;8.724;2023-05-16T05:55:57;8.75;;;5.50;;
19891;SDS011;10108;50.142;8.724;2023-05-16T05:58:23;9.93;;;4.80;;
19891;SDS011;10108;50.142;8.724;2023-05-16T06:00:49;5.45;;;4.70;;
19891;SDS011;10108;50.142;8.724;2023-05-16T06:03:15;6.75;;;4.75;;
19891;SDS011;10108;50.142;8.724;2023-05-16T06:05:41;5.72;;;4.65;;
19891;SDS011;10108;50.142;8.724;2023-05-16T06:08:08;5.60;;;4.47;;
19891;SDS011;10108;50.142;8.724;2023-05-16T06:10:34;8.82;;;5.00;;
19891;SDS011;10108;50.142;8.724;2023-05-16T06:13:00;7.28;;;5.18;;
19891;SDS011;10108;50.142;8.724;2023-05-16T06:15:26;7.65;;;5.28;;
19891;SDS011;10108;50.142;8.724;2023-05-16T06:17:52;8.55;;;5.72;;
19891;SDS011;10108;50.142;8.724;2023-05-16T06:20:18;8.35;;;5.55;;
19891;SDS011;10108;50.142;8.724;2023-05-16T06:22:44;8.73;;;5.63;;
19891;SDS011;10108;50.142;8.724;2023-05-16T06:25:10;8.32;;;5.40;;
19891;SDS011;10108;50.142;8.724;2023-05-16T06:27:37;9.25;;;5.85;;
19891;SDS011;10108;50.142;8.724;2023-05-16T06:30:03;9.75;;;5.80;;
19891;SDS011;10108;50.142;8.724;2023-05-16T06:32:29;10.30;;;6.18;;
19891;SDS011;10108;50.142;8.724;2023-05-16T06:34:56;8.60;;;5.85;;
19891;SDS011;10108;50.142;8.724;2023-05-16T06:37:22;12.20;;;6.50;;
19891;SDS011;10108;50.142;8.724;2023-05-16T06:39:48;10.80;;;6.47;;
19891;SDS011;10108;50.142;8.724;2023-05-16T06:42:14;9.85;;;6.28;;
19891;SDS011;10108;50.142;8.724;2023-05-16T06:44:41;9.60;;;6.43;;
19891;SDS011;10108;50.142;8.724;2023-05-16T06:47:07;9.68;;;6.40;;
19891;SDS011;10108;50.142;8.724;2023-05-16T06:49:33;9.00;;;6.10;;
19891;SDS011;10108;50.142;8.724;2023-05-16T06:51:59;10.85;;;5.60;;
19891;SDS011;10108;50.142;8.724;2023-05-16T06:54:25;9.85;;;5.95;;
19891;SDS011;10108;50.142;8.724;2023-05-16T06:56:51;7.47;;;5.32;;
19891;SDS011;10108;50.142;8.724;2023-05-16T06:59:17;10.30;;;6.57;;
19891;SDS011;10108;50.142;8.724;2023-05-16T07:01:43;13.10;;;6.18;;
19891;SDS011;10108;50.142;8.724;2023-05-16T07:04:10;9.02;;;6.10;;
19891;SDS011;10108;50.142;8.724;2023-05-16T07:06:36;11.35;;;6.63;;
19891;SDS011;10108;50.142;8.724;2023-05-16T07:09:03;9.25;;;6.07;;
19891;SDS011;10108;50.142;8.724;2023-05-16T07:11:29;11.73;;;6.32;;
19891;SDS011;10108;50.142;8.724;2023-05-16T07:13:55;8.38;;;5.63;;
19891;SDS011;10108;50.142;8.724;2023-05-16T07:16:21;9.50;;;5.85;;
19891;SDS011;10108;50.142;8.724;2023-05-16T07:18:47;8.10;;;5.15;;
19891;SDS011;10108;50.142;8.724;2023-05-16T07:21:13;8.73;;;5.22;;
19891;SDS011;10108;50.142;8.724;2023-05-16T07:23:39;7.28;;;5.03;;
19891;SDS011;10108;50.142;8.724;2023-05-16T07:26:06;8.30;;;5.20;;
19891;SDS011;10108;50.142;8.724;2023-05-16T07:28:32;7.35;;;4.43;;
19891;SDS011;10108;50.142;8.724;2023-05-16T07:30:58;5.88;;;4.70;;
19891;SDS011;10108;50.142;8.724;2023-05-16T07:33:24;5.75;;;4.30;;
19891;SDS011;10108;50.142;8.724;2023-05-16T07:35:51;7.15;;;4.20;;
19891;SDS011;10108;50.142;8.724;2023-05-16T07:38:19;4.43;;;3.97;;
19891;SDS011;10108;50.142;8.724;2023-05-16T07:40:45;4.55;;;3.67;;
19891;SDS011;10108;50.142;8.724;2023-05-16T07:43:12;5.57;;;4.00;;
19891;SDS011;10108;50.142;8.724;2023-05-16T07:45:38;4.28;;;3.88;;
19891;SDS011;10108;50.142;8.724;2023-05-16T07:48:04;4.50;;;4.10;;
19891;SDS011;10108;50.142;8.724;2023-05-16T07:50:30;4.45;;;4.00;;
19891;SDS011;10108;50.142;8.724;2023-05-16T07:52:56;4.50;;;4.10;;
19891;SDS011;10108;50.142;8.724;2023-05-16T07:55:22;6.57;;;4.07;;
19891;SDS011;10108;50.142;8.724;2023-05-16T07:57:49;4.47;;;4.07;;
19891;SDS011;10108;50.142;8.724;2023-05-16T08:00:15;5.03;;;4.10;;
19891;SDS011;10108;50.142;8.724;2023-05-16T08:02:42;4.57;;;4.13;;
19891;SDS011;10108;50.142;8.724;2023-05-16T08:05:08;5.20;;;4.00;;
19891;SDS011;10108;50.142;8.724;2023-05-16T08:07:35;5.65;;;3.90;;
19891;SDS011;10108;50.142;8.724;2023-05-16T08:10:01;5.05;;;4.10;;
19891;SDS011;10108;50.142;8.724;2023-05-16T08:12:28;4.53;;;4.00;;
19891;SDS011;10108;50.142;8.724;2023-05-16T08:14:55;5.40;;;4.00;;
19891;SDS011;10108;50.142;8.724;2023-05-16T08:17:21;4.72;;;4.05;;
19891;SDS011;10108;50.142;8.724;2023-05-16T08:19:47;4.50;;;3.83;;
19891;SDS011;10108;50.142;8.724;2023-05-16T08:22:14;6.30;;;4.00;;
19891;SDS011;10108;50.142;8.724;2023-05-16T08:24:40;4.43;;;3.95;;
19891;SDS011;10108;50.142;8.724;2023-05-16T08:27:06;5.50;;;4.10;;
19891;SDS011;10108;50.142;8.724;2023-05-16T08:29:33;10.38;;;3.83;;
19891;SDS011;10108;50.142;8.724;2023-05-16T08:31:59;6.35;;;4.20;;
19891;SDS011;10108;50.142;8.724;2023-05-16T08:34:25;6.35;;;4.25;;
19891;SDS011;10108;50.142;8.724;2023-05-16T08:36:51;6.57;;;4.25;;
19891;SDS011;10108;50.142;8.724;2023-05-16T08:39:19;7.57;;;4.30;;
19891;SDS011;10108;50.142;8.724;2023-05-16T08:41:45;6.00;;;4.20;;
19891;SDS011;10108;50.142;8.724;2023-05-16T08:44:11;7.68;;;4.00;;
19891;SDS011;10108;50.142;8.724;2023-05-16T08:46:41;6.72;;;4.18;;
19891;SDS011;10108;50.142;8.724;2023-05-16T08:49:09;6.03;;;4.00;;
19891;SDS011;10108;50.142;8.724;2023-05-16T08:51:36;7.72;;;4.30;;
19891;SDS011;10108;50.142;8.724;2023-05-16T08:54:05;5.22;;;4.13;;
19891;SDS011;10108;50.142;8.724;2023-05-16T08:56:36;9.25;;;4.32;;
19891;SDS011;10108;50.142;8.724;2023-05-16T08:59:02;6.85;;;4.30;;
19891;SDS011;10108;50.142;8.724;2023-05-16T09:01:29;8.05;;;4.30;;
19891;SDS011;10108;50.142;8.724;2023-05-16T09:03:59;9.25;;;4.28;;
19891;SDS011;10108;50.142;8.724;2023-05-16T09:06:26;8.77;;;4.50;;
19891;SDS011;10108;50.142;8.724;2023-05-16T09:08:52;8.32;;;4.00;;
19891;SDS011;10108;50.142;8.724;2023-05-16T09:11:19;5.95;;;4.43;;
19891;SDS011;10108;50.142;8.724;2023-05-16T09:13:46;9.05;;;4.25;;
19891;SDS011;10108;50.142;8.724;2023-05-16T09:16:14;8.75;;;4.68;;
19891;SDS011;10108;50.142;8.724;2023-05-16T09:18:54;9.35;;;4.97;;
19891;SDS011;10108;50.142;8.724;2023-05-16T09:21:40;9.98;;;4.90;;
19891;SDS011;10108;50.142;8.724;2023-05-16T09:24:07;9.77;;;5.13;;
19891;SDS011;10108;50.142;8.724;2023-05-16T09:26:35;9.23;;;5.00;;
19891;SDS011;10108;50.142;8.724;2023-05-16T09:29:11;7.03;;;4.78;;
19891;SDS011;10108;50.142;8.724;2023-05-16T09:31:38;10.75;;;5.00;;
19891;SDS011;10108;50.142;8.724;2023-05-16T09:34:06;8.18;;;4.78;;
19891;SDS011;10108;50.142;8.724;2023-05-16T09:36:33;10.25;;;5.00;;
19891;SDS011;10108;50.142;8.724;2023-05-16T09:39:00;8.05;;;5.20;;
19891;SDS011;10108;50.142;8.724;2023-05-16T09:41:26;6.22;;;4.50;;
19891;SDS011;10108;50.142;8.724;2023-05-16T09:43:52;8.05;;;4.43;;
19891;SDS011;10108;50.142;8.724;2023-05-16T09:46:19;9.68;;;4.50;;
19891;SDS011;10108;50.142;8.724;2023-05-16T09:48:51;9.85;;;4.93;;
19891;SDS011;10108;50.142;8.724;2023-05-16T09:51:21;11.07;;;4.40;;
19891;SDS011;10108;50.142;8.724;2023-05-16T09:53:48;7.35;;;4.40;;
19891;SDS011;10108;50.142;8.724;2023-05-16T09:56:14;6.88;;;4.00;;
19891;SDS011;10108;50.142;8.724;2023-05-16T09:58:41;11.70;;;4.30;;
19891;SDS011;10108;50.142;8.724;2023-05-16T10:01:09;8.35;;;4.40;;
19891;SDS011;10108;50.142;8.724;2023-05-16T10:03:36;9.88;;;4.32;;
19891;SDS011;10108;50.142;8.724;2023-05-16T10:06:04;10.93;;;4.43;;
19891;SDS011;10108;50.142;8.724;2023-05-16T10:08:32;12.32;;;4.55;;
19891;SDS011;10108;50.142;8.724;2023-05-16T10:11:01;8.23;;;4.35;;
19891;SDS011;10108;50.142;8.724;2023-05-16T10:13:30;8.15;;;4.28;;
19891;SDS011;10108;50.142;8.724;2023-05-16T10:15:58;8.05;;;4.63;;
19891;SDS011;10108;50.142;8.724;2023-05-16T10:18:29;7.50;;;4.55;;
19891;SDS011;10108;50.142;8.724;2023-05-16T10:20:57;7.68;;;4.68;;
19891;SDS011;10108;50.142;8.724;2023-05-16T10:23:41;9.80;;;4.65;;
19891;SDS011;10108;50.142;8.724;2023-05-16T10:26:08;9.35;;;4.75;;
19891;SDS011;10108;50.142;8.724;2023-05-16T10:28:35;10.25;;;4.78;;
19891;SDS011;10108;50.142;8.724;2023-05-16T10:31:02;12.00;;;4.85;;
19891;SDS011;10108;50.142;8.724;2023-05-16T10:33:30;10.82;;;4.78;;
19891;SDS011;10108;50.142;8.724;2023-05-16T10:35:56;12.40;;;5.22;;
19891;SDS011;10108;50.142;8.724;2023-05-16T10:38:22;11.10;;;4.50;;
19891;SDS011;10108;50.142;8.724;2023-05-16T10:40:49;11.52;;;4.85;;
19891;SDS011;10108;50.142;8.724;2023-05-16T10:43:21;9.45;;;4.70;;
19891;SDS011;10108;50.142;8.724;2023-05-16T10:45:56;10.48;;;5.05;;
19891;SDS011;10108;50.142;8.724;2023-05-16T10:48:31;9.68;;;4.93;;
19891;SDS011;10108;50.142;8.724;2023-05-16T10:50:59;11.68;;;4.95;;
19891;SDS011;10108;50.142;8.724;2023-05-16T11:01:13;12.57;;;4.90;;
19891;SDS011;10108;50.142;8.724;2023-05-16T11:03:58;9.63;;;4.80;;
19891;SDS011;10108;50.142;8.724;2023-05-16T11:09:17;8.23;;;4.55;;
19891;SDS011;10108;50.142;8.724;2023-05-16T11:14:20;9.93;;;4.80;;
19891;SDS011;10108;50.142;8.724;2023-05-16T11:27:30;8.45;;;4.47;;
19891;SDS011;10108;50.142;8.724;2023-05-16T11:29:58;8.70;;;4.85;;
19891;SDS011;10108;50.142;8.724;2023-05-16T11:32:34;14.20;;;5.10;;
19891;SDS011;10108;50.142;8.724;2023-05-16T11:35:06;11.93;;;5.22;;
19891;SDS011;10108;50.142;8.724;2023-05-16T11:37:34;11.82;;;5.30;;
19891;SDS011;10108;50.142;8.724;2023-05-16T11:40:04;11.52;;;5.68;;
19891;SDS011;10108;50.142;8.724;2023-05-16T11:42:36;9.63;;;4.50;;
19891;SDS011;10108;50.142;8.724;2023-05-16T11:45:19;8.80;;;4.28;;
19891;SDS011;10108;50.142;8.724;2023-05-16T11:47:50;9.32;;;4.80;;
19891;SDS011;10108;50.142;8.724;2023-05-16T11:50:17;11.32;;;4.20;;
19891;SDS011;10108;50.142;8.724;2023-05-16T11:52:45;11.38;;;5.20;;
19891;SDS011;10108;50.142;8.724;2023-05-16T11:55:19;9.38;;;4.85;;
19891;SDS011;10108;50.142;8.724;2023-05-16T11:57:48;10.90;;;4.57;;
19891;SDS011;10108;50.142;8.724;2023-05-16T12:00:17;8.60;;;4.88;;
19891;SDS011;10108;50.142;8.724;2023-05-16T12:02:44;11.40;;;4.95;;
19891;SDS011;10108;50.142;8.724;2023-05-16T12:05:14;8.77;;;4.50;;
19891;SDS011;10108;50.142;8.724;2023-05-16T12:07:42;8.73;;;4.65;;
19891;SDS011;10108;50.142;8.724;2023-05-16T12:10:10;8.98;;;4.85;;
19891;SDS011;10108;50.142;8.724;2023-05-16T12:12:38;13.10;;;4.50;;
19891;SDS011;10108;50.142;8.724;2023-05-16T12:15:13;10.20;;;4.43;;
19891;SDS011;10108;50.142;8.724;2023-05-16T12:17:40;8.30;;;4.55;;
19891;SDS011;10108;50.142;8.724;2023-05-16T12:20:07;15.13;;;4.72;;
19891;SDS011;10108;50.142;8.724;2023-05-16T12:22:38;9.40;;;4.78;;
19891;SDS011;10108;50.142;8.724;2023-05-16T12:25:26;9.45;;;4.75;;
19891;SDS011;10108;50.142;8.724;2023-05-16T12:27:53;8.13;;;4.20;;
19891;SDS011;10108;50.142;8.724;2023-05-16T12:30:20;8.68;;;4.55;;
19891;SDS011;10108;50.142;8.724;2023-05-16T12:32:51;8.73;;;4.20;;
19891;SDS011;10108;50.142;8.724;2023-05-16T12:35:22;7.88;;;4.18;;
19891;SDS011;10108;50.142;8.724;2023-05-16T12:37:49;8.45;;;4.05;;
19891;SDS011;10108;50.142;8.724;2023-05-16T12:40:16;8.57;;;3.85;;
19891;SDS011;10108;50.142;8.724;2023-05-16T12:42:43;9.07;;;4.50;;
19891;SDS011;10108;50.142;8.724;2023-05-16T12:45:16;9.43;;;4.43;;
19891;SDS011;10108;50.142;8.724;2023-05-16T12:47:43;7.90;;;4.22;;
19891;SDS011;10108;50.142;8.724;2023-05-16T12:50:10;8.65;;;4.15;;
19891;SDS011;10108;50.142;8.724;2023-05-16T12:55:22;9.07;;;4.53;;
19891;SDS011;10108;50.142;8.724;2023-05-16T12:57:49;14.55;;;4.45;;
19891;SDS011;10108;50.142;8.724;2023-05-16T13:00:16;9.88;;;4.10;;
19891;SDS011;10108;50.142;8.724;2023-05-16T13:02:44;10.52;;;4.55;;
19891;SDS011;10108;50.142;8.724;2023-05-16T13:05:12;8.77;;;4.60;;
19891;SDS011;10108;50.142;8.724;2023-05-16T13:07:38;10.88;;;4.40;;
19891;SDS011;10108;50.142;8.724;2023-05-16T13:10:06;9.27;;;4.78;;
19891;SDS011;10108;50.142;8.724;2023-05-16T13:12:35;19.88;;;4.38;;
19891;SDS011;10108;50.142;8.724;2023-05-16T13:15:02;9.20;;;4.47;;
19891;SDS011;10108;50.142;8.724;2023-05-16T13:17:28;8.43;;;4.28;;
19891;SDS011;10108;50.142;8.724;2023-05-16T13:19:55;12.35;;;4.57;;
19891;SDS011;10108;50.142;8.724;2023-05-16T13:22:21;10.98;;;4.65;;
19891;SDS011;10108;50.142;8.724;2023-05-16T13:24:47;8.98;;;4.80;;
19891;SDS011;10108;50.142;8.724;2023-05-16T13:27:16;7.97;;;4.57;;
19891;SDS011;10108;50.142;8.724;2023-05-16T13:29:43;9.45;;;4.53;;
19891;SDS011;10108;50.142;8.724;2023-05-16T13:32:09;10.05;;;4.40;;
19891;SDS011;10108;50.142;8.724;2023-05-16T13:34:35;6.78;;;4.45;;
19891;SDS011;10108;50.142;8.724;2023-05-16T13:37:01;8.48;;;4.25;;
19891;SDS011;10108;50.142;8.724;2023-05-16T13:39:28;7.22;;;4.25;;
19891;SDS011;10108;50.142;8.724;2023-05-16T13:41:54;7.38;;;4.22;;
19891;SDS011;10108;50.142;8.724;2023-05-16T13:44:20;8.10;;;4.68;;
19891;SDS011;10108;50.142;8.724;2023-05-16T13:46:47;10.40;;;4.28;;
19891;SDS011;10108;50.142;8.724;2023-05-16T13:49:13;7.97;;;4.32;;
19891;SDS011;10108;50.142;8.724;2023-05-16T13:51:39;8.27;;;4.35;;
19891;SDS011;10108;50.142;8.724;2023-05-16T13:54:05;11.63;;;4.60;;
19891;SDS011;10108;50.142;8.724;2023-05-16T13:56:31;8.95;;;4.60;;
19891;SDS011;10108;50.142;8.724;2023-05-16T13:58:58;10.98;;;4.80;;
19891;SDS011;10108;50.142;8.724;2023-05-16T14:01:24;8.10;;;4.60;;
19891;SDS011;10108;50.142;8.724;2023-05-16T14:03:50;9.07;;;4.47;;
19891;SDS011;10108;50.142;8.724;2023-05-16T14:06:16;9.48;;;4.50;;
19891;SDS011;10108;50.142;8.724;2023-05-16T14:08:42;9.27;;;4.35;;
19891;SDS011;10108;50.142;8.724;2023-05-16T14:11:08;8.48;;;4.65;;
19891;SDS011;10108;50.142;8.724;2023-05-16T14:13:34;8.93;;;4.30;;
19891;SDS011;10108;50.142;8.724;2023-05-16T14:16:01;10.80;;;4.22;;
19891;SDS011;10108;50.142;8.724;2023-05-16T14:18:27;7.85;;;3.90;;
19891;SDS011;10108;50.142;8.724;2023-05-16T14:20:53;8.82;;;4.60;;
19891;SDS011;10108;50.142;8.724;2023-05-16T14:23:20;8.82;;;4.78;;
19891;SDS011;10108;50.142;8.724;2023-05-16T14:25:47;9.27;;;4.50;;
19891;SDS011;10108;50.142;8.724;2023-05-16T14:28:13;6.90;;;4.20;;
19891;SDS011;10108;50.142;8.724;2023-05-16T14:30:39;7.95;;;4.20;;
19891;SDS011;10108;50.142;8.724;2023-05-16T14:33:06;9.38;;;4.60;;
19891;SDS011;10108;50.142;8.724;2023-05-16T14:35:32;10.35;;;4.78;;
19891;SDS011;10108;50.142;8.724;2023-05-16T14:37:58;13.23;;;4.35;;
19891;SDS011;10108;50.142;8.724;2023-05-16T14:40:25;8.25;;;4.35;;
19891;SDS011;10108;50.142;8.724;2023-05-16T14:42:51;9.93;;;4.18;;
19891;SDS011;10108;50.142;8.724;2023-05-16T14:45:17;10.43;;;4.60;;
19891;SDS011;10108;50.142;8.724;2023-05-16T14:47:43;8.88;;;4.50;;
19891;SDS011;10108;50.142;8.724;2023-05-16T14:50:09;10.02;;;4.32;;
19891;SDS011;10108;50.142;8.724;2023-05-16T14:52:37;13.30;;;4.65;;
19891;SDS011;10108;50.142;8.724;2023-05-16T14:55:04;8.70;;;4.28;;
19891;SDS011;10108;50.142;8.724;2023-05-16T14:57:31;10.35;;;4.60;;
19891;SDS011;10108;50.142;8.724;2023-05-16T14:59:57;9.68;;;4.25;;
19891;SDS011;10108;50.142;8.724;2023-05-16T15:02:23;6.07;;;4.20;;
19891;SDS011;10108;50.142;8.724;2023-05-16T15:04:51;9.43;;;4.38;;
19891;SDS011;10108;50.142;8.724;2023-05-16T15:07:19;9.88;;;4.22;;
19891;SDS011;10108;50.142;8.724;2023-05-16T15:09:45;7.53;;;4.28;;
19891;SDS011;10108;50.142;8.724;2023-05-16T15:12:11;6.88;;;4.18;;